Time;durP1;ratioP1;P1;durP2;ratioP2;P2;SDS_P1;SDS_P2;PMS_P1;PMS_P2;Temp;Humidity;BMP_temperature;BMP_pressure;BME280_temperature;BME280_humidity;BME280_pressure;Samples;Min_cycle;Max_cycle;Signal;HPM_P1;HPM_P2
2021/04/14 00:00:50;;;;;;;6.60;5.03;;;2.60;99.90;;;;;;5118358;27;20193;-64
2021/04/14 00:03:21;;;;;;;6.80;4.93;;;2.60;99.90;;;;;;5109723;28;20163;-64
2021/04/14 00:05:47;;;;;;;6.50;4.87;;;2.60;99.90;;;;;;5108362;28;20163;-64
2021/04/14 00:08:15;;;;;;;6.40;4.40;;;2.50;99.90;;;;;;5099199;28;20898;-64
2021/04/14 00:10:41;;;;;;;6.83;4.83;;;2.50;99.90;;;;;;5096227;28;20769;-64
2021/04/14 00:13:12;;;;;;;6.07;4.30;;;2.50;99.90;;;;;;5095759;28;20394;-64
2021/04/14 00:15:42;;;;;;;7.33;3.97;;;2.50;99.90;;;;;;5094456;28;20449;-64
2021/04/14 00:18:08;;;;;;;6.87;4.43;;;2.50;99.90;;;;;;5095839;28;20468;-64
2021/04/14 00:20:34;;;;;;;7.77;4.40;;;2.40;99.90;;;;;;5095806;28;20485;-64
2021/04/14 00:23:00;;;;;;;5.37;4.50;;;2.40;99.90;;;;;;5095476;28;20171;-64
2021/04/14 00:25:29;;;;;;;7.10;4.50;;;2.40;99.90;;;;;;5095654;28;20449;-64
2021/04/14 00:27:55;;;;;;;9.00;4.37;;;2.40;99.90;;;;;;5095060;28;20707;-64
2021/04/14 00:30:21;;;;;;;8.00;5.30;;;2.40;99.90;;;;;;5095792;28;20481;-64
2021/04/14 00:32:48;;;;;;;4.47;3.93;;;2.40;99.90;;;;;;5095456;28;20167;-64
2021/04/14 00:35:14;;;;;;;6.07;3.40;;;2.40;99.90;;;;;;5095285;28;20451;-64
2021/04/14 00:37:40;;;;;;;4.20;3.80;;;2.40;99.90;;;;;;5095260;28;20886;-64
2021/04/14 00:40:08;;;;;;;5.90;4.73;;;2.30;99.90;;;;;;5095231;28;20442;-64
2021/04/14 00:42:34;;;;;;;5.43;4.30;;;2.30;99.90;;;;;;5095289;28;20159;-65
2021/04/14 00:44:59;;;;;;;5.13;4.17;;;2.30;99.90;;;;;;5095722;28;20779;-64
2021/04/14 00:47:25;;;;;;;6.80;5.20;;;2.30;99.90;;;;;;5095031;28;20195;-64
2021/04/14 00:49:53;;;;;;;8.80;4.50;;;2.30;99.90;;;;;;5094941;28;20293;-64
2021/04/14 00:52:19;;;;;;;6.70;4.30;;;2.30;99.90;;;;;;5095042;28;20526;-64
2021/04/14 00:54:45;;;;;;;5.03;4.17;;;2.30;99.90;;;;;;5093799;28;20900;-64
2021/04/14 00:57:10;;;;;;;6.40;4.83;;;2.20;99.90;;;;;;5094833;28;20464;-64
2021/04/14 00:59:36;;;;;;;5.00;4.13;;;2.20;99.90;;;;;;5094992;28;20175;-64
2021/04/14 01:02:02;;;;;;;5.40;4.37;;;2.20;99.90;;;;;;5099162;28;20183;-64
2021/04/14 01:04:27;;;;;;;6.30;4.30;;;2.20;99.90;;;;;;5115421;28;20220;-64
2021/04/14 01:06:53;;;;;;;4.50;3.43;;;2.20;99.90;;;;;;5115157;28;20159;-65
2021/04/14 01:09:18;;;;;;;6.10;4.80;;;2.20;99.90;;;;;;5115277;28;20166;-64
2021/04/14 01:11:44;;;;;;;5.20;4.70;;;2.10;99.90;;;;;;5115100;28;20163;-64
2021/04/14 01:14:10;;;;;;;6.20;4.33;;;2.10;99.90;;;;;;5115007;28;20162;-64
2021/04/14 01:16:35;;;;;;;6.00;4.30;;;2.10;99.90;;;;;;5114750;28;20448;-64
2021/04/14 01:19:01;;;;;;;7.70;3.97;;;2.10;99.90;;;;;;5113030;28;20243;-64
2021/04/14 01:21:42;;;;;;;6.20;4.03;;;2.00;99.90;;;;;;5114862;28;20270;-64
2021/04/14 01:24:11;;;;;;;5.47;4.77;;;2.00;99.90;;;;;;5114062;28;20165;-64
2021/04/14 01:26:37;;;;;;;5.87;4.17;;;2.00;99.90;;;;;;5114800;28;20496;-64
2021/04/14 01:29:04;;;;;;;6.67;4.97;;;2.00;99.90;;;;;;5114617;28;20483;-64
2021/04/14 01:31:33;;;;;;;5.37;4.40;;;2.00;99.90;;;;;;5114631;28;20801;-65
2021/04/14 01:34:00;;;;;;;5.63;4.83;;;1.90;99.90;;;;;;5114684;28;20420;-64
2021/04/14 01:36:26;;;;;;;5.93;4.10;;;1.90;99.90;;;;;;5113814;28;20455;-64
2021/04/14 01:38:52;;;;;;;5.53;4.23;;;1.90;99.90;;;;;;5114591;28;20873;-64
2021/04/14 01:41:17;;;;;;;7.40;4.47;;;1.90;99.90;;;;;;5114529;28;20178;-64
2021/04/14 01:43:43;;;;;;;5.13;3.83;;;1.90;99.90;;;;;;5114341;28;20163;-64
2021/04/14 01:46:08;;;;;;;5.70;4.37;;;1.80;99.90;;;;;;5114441;28;20233;-64
2021/04/14 01:48:34;;;;;;;5.00;3.77;;;1.80;99.90;;;;;;5114372;28;20270;-64
2021/04/14 01:51:00;;;;;;;4.90;4.30;;;1.80;99.90;;;;;;5114620;28;20494;-64
2021/04/14 01:53:25;;;;;;;9.10;5.40;;;1.80;99.90;;;;;;5113461;28;20182;-64
2021/04/14 01:55:52;;;;;;;5.67;4.73;;;1.80;99.90;;;;;;5113983;28;20463;-64
2021/04/14 01:58:19;;;;;;;6.70;5.37;;;1.70;99.90;;;;;;5114222;28;20216;-64
2021/04/14 02:00:52;;;;;;;4.57;4.17;;;1.70;99.90;;;;;;5102841;28;20420;-64
2021/04/14 02:03:19;;;;;;;6.67;4.40;;;1.70;99.90;;;;;;5093867;28;20416;-64
2021/04/14 02:05:45;;;;;;;6.47;4.73;;;1.70;99.90;;;;;;5093713;28;20397;-64
2021/04/14 02:08:11;;;;;;;5.80;3.87;;;1.60;99.90;;;;;;5093589;28;20381;-64
2021/04/14 02:10:37;;;;;;;5.60;4.10;;;1.60;99.90;;;;;;5094113;28;20417;-64
2021/04/14 02:13:06;;;;;;;4.73;4.10;;;1.60;99.90;;;;;;5093445;28;20950;-64
2021/04/14 02:15:34;;;;;;;8.80;4.50;;;1.60;99.90;;;;;;5092256;28;21034;-65
2021/04/14 02:18:00;;;;;;;5.10;4.00;;;1.60;99.90;;;;;;5093590;28;20386;-64
2021/04/14 02:20:25;;;;;;;5.70;4.37;;;1.60;99.90;;;;;;5093647;28;20526;-64
2021/04/14 02:22:51;;;;;;;6.60;4.37;;;1.60;99.90;;;;;;5092285;28;20760;-64
2021/04/14 02:25:18;;;;;;;5.23;4.73;;;1.60;99.90;;;;;;5093309;28;20160;-65
2021/04/14 02:27:44;;;;;;;6.33;4.80;;;1.60;99.90;;;;;;5092883;28;20179;-64
2021/04/14 02:30:14;;;;;;;7.00;4.80;;;1.60;99.90;;;;;;5093036;28;20751;-64
2021/04/14 02:32:40;;;;;;;7.50;4.33;;;1.60;99.90;;;;;;5092237;28;20168;-64
2021/04/14 02:35:06;;;;;;;6.60;4.70;;;1.60;99.90;;;;;;5093255;28;20397;-64
2021/04/14 02:37:31;;;;;;;5.43;4.80;;;1.50;99.90;;;;;;5093053;28;20167;-64
2021/04/14 02:39:57;;;;;;;6.33;5.03;;;1.50;99.90;;;;;;5093107;28;20492;-64
2021/04/14 02:42:22;;;;;;;5.40;4.90;;;1.50;99.90;;;;;;5093677;28;20239;-65
2021/04/14 02:44:48;;;;;;;7.00;4.60;;;1.50;99.90;;;;;;5093760;28;20182;-65
2021/04/14 02:47:13;;;;;;;9.27;4.80;;;1.50;99.90;;;;;;5093338;28;20299;-65
2021/04/14 02:49:39;;;;;;;5.93;5.07;;;1.50;99.90;;;;;;5093159;28;20190;-65
2021/04/14 02:52:05;;;;;;;5.47;4.50;;;1.50;99.90;;;;;;5093020;28;20147;-65
2021/04/14 02:54:30;;;;;;;6.17;4.80;;;1.50;99.90;;;;;;5093018;28;20155;-65
2021/04/14 02:56:56;;;;;;;5.37;4.87;;;1.40;99.90;;;;;;5092790;28;20234;-65
2021/04/14 02:59:21;;;;;;;7.20;5.43;;;1.40;99.90;;;;;;5093416;28;20159;-65
2021/04/14 03:01:47;;;;;;;6.63;4.90;;;1.40;99.90;;;;;;5103597;28;20174;-65
2021/04/14 03:04:13;;;;;;;6.03;5.10;;;1.40;99.90;;;;;;5113257;28;20151;-65
2021/04/14 03:06:38;;;;;;;5.87;5.20;;;1.40;99.90;;;;;;5113179;28;20159;-65
2021/04/14 03:09:04;;;;;;;7.57;5.40;;;1.30;99.90;;;;;;5113050;28;20166;-65
2021/04/14 03:11:30;;;;;;;5.70;5.00;;;1.30;99.90;;;;;;5112028;28;20615;-65
2021/04/14 03:13:56;;;;;;;5.43;4.90;;;1.30;99.90;;;;;;5113042;28;20400;-65
2021/04/14 03:16:24;;;;;;;7.93;5.20;;;1.30;99.90;;;;;;5112951;28;20182;-65
2021/04/14 03:18:49;;;;;;;12.70;6.03;;;1.30;99.90;;;;;;5112344;28;20179;-65
2021/04/14 03:21:15;;;;;;;9.60;5.67;;;1.30;99.90;;;;;;5113350;28;20804;-65
2021/04/14 03:23:41;;;;;;;7.13;5.07;;;1.30;99.90;;;;;;5112044;28;20159;-65
2021/04/14 03:26:07;;;;;;;7.90;4.87;;;1.30;99.90;;;;;;5113178;28;20393;-65
2021/04/14 03:28:32;;;;;;;10.27;4.70;;;1.30;99.90;;;;;;5112975;28;20387;-65
2021/04/14 03:30:58;;;;;;;5.87;5.10;;;1.30;99.90;;;;;;5112814;28;20167;-65
2021/04/14 03:33:23;;;;;;;6.40;4.60;;;1.30;99.90;;;;;;5113188;28;20174;-65
2021/04/14 03:35:49;;;;;;;5.00;4.50;;;1.30;99.90;;;;;;5111854;28;20301;-65
2021/04/14 03:38:14;;;;;;;6.13;5.40;;;1.30;99.90;;;;;;5112909;28;20604;-65
2021/04/14 03:40:40;;;;;;;8.20;5.60;;;1.30;99.90;;;;;;5113121;28;20166;-65
2021/04/14 03:43:05;;;;;;;6.23;5.63;;;1.30;99.90;;;;;;5114935;28;20155;-65
2021/04/14 03:45:38;;;;;;;5.13;4.60;;;1.40;99.90;;;;;;5116669;28;20202;-65
2021/04/14 03:48:05;;;;;;;6.83;5.10;;;1.40;99.90;;;;;;5117029;28;20249;-65
2021/04/14 03:50:30;;;;;;;6.70;6.00;;;1.40;99.90;;;;;;5115620;28;20376;-65
2021/04/14 03:53:08;;;;;;;9.10;5.90;;;1.40;99.90;;;;;;5115808;28;20548;-65
2021/04/14 03:55:33;;;;;;;8.47;6.23;;;1.40;99.90;;;;;;5116500;28;20202;-65
2021/04/14 03:57:59;;;;;;;7.37;5.17;;;1.40;99.90;;;;;;5116480;28;20896;-65
2021/04/14 04:00:25;;;;;;;6.07;5.43;;;1.40;99.90;;;;;;5108017;28;20187;-65
2021/04/14 04:02:51;;;;;;;9.20;6.00;;;1.40;99.90;;;;;;5095947;28;20148;-65
2021/04/14 04:05:17;;;;;;;6.90;5.93;;;1.40;99.90;;;;;;5096134;28;20404;-65
2021/04/14 04:07:42;;;;;;;8.07;5.77;;;1.40;99.90;;;;;;5094944;28;20155;-65
2021/04/14 04:10:08;;;;;;;9.40;7.17;;;1.40;99.90;;;;;;5096498;28;20415;-65
2021/04/14 04:12:37;;;;;;;6.03;5.43;;;1.50;99.90;;;;;;5095841;28;20159;-65
2021/04/14 04:15:05;;;;;;;9.07;6.07;;;1.40;99.90;;;;;;5095799;28;20390;-65
2021/04/14 04:17:31;;;;;;;7.40;5.60;;;1.40;99.90;;;;;;5095625;28;20437;-65
2021/04/14 04:19:56;;;;;;;8.83;6.30;;;1.40;99.90;;;;;;5096278;28;20901;-65
2021/04/14 04:22:22;;;;;;;7.80;6.40;;;1.40;99.90;;;;;;5095720;28;20156;-65
2021/04/14 04:24:49;;;;;;;6.83;6.13;;;1.40;99.90;;;;;;5095900;28;20520;-65
2021/04/14 04:27:17;;;;;;;10.73;5.80;;;1.40;99.90;;;;;;5096459;28;20179;-65
2021/04/14 04:29:43;;;;;;;12.90;5.03;;;1.40;99.90;;;;;;5095713;28;20798;-65
2021/04/14 04:32:09;;;;;;;5.97;5.47;;;1.40;99.90;;;;;;5095420;28;20488;-65
2021/04/14 04:34:35;;;;;;;9.83;6.10;;;1.30;99.90;;;;;;5095924;28;20196;-65
2021/04/14 04:37:00;;;;;;;5.93;5.33;;;1.30;99.90;;;;;;5094418;28;20945;-65
2021/04/14 04:39:26;;;;;;;6.47;5.33;;;1.20;99.90;;;;;;5095457;28;20466;-65
2021/04/14 04:41:52;;;;;;;11.80;6.23;;;1.20;99.90;;;;;;5095363;28;20187;-65
2021/04/14 04:44:17;;;;;;;7.83;5.60;;;1.20;99.90;;;;;;5096349;28;20183;-65
2021/04/14 04:46:43;;;;;;;9.47;6.20;;;1.30;99.90;;;;;;5095130;28;20195;-65
2021/04/14 04:49:08;;;;;;;12.90;6.40;;;1.30;99.90;;;;;;5095333;28;20638;-65
2021/04/14 04:51:34;;;;;;;8.83;5.90;;;1.30;99.90;;;;;;5095091;28;20198;-65
2021/04/14 04:53:59;;;;;;;8.90;7.20;;;1.30;99.90;;;;;;5094945;28;20224;-65
2021/04/14 04:56:25;;;;;;;7.63;5.63;;;1.30;99.90;;;;;;5094927;28;20215;-65
2021/04/14 04:58:51;;;;;;;13.30;6.63;;;1.30;99.90;;;;;;5095190;28;20616;-65
2021/04/14 05:01:17;;;;;;;10.10;6.87;;;1.30;99.90;;;;;;5095436;28;20179;-65
2021/04/14 05:03:42;;;;;;;7.03;5.87;;;1.40;99.90;;;;;;5094980;28;20158;-65
2021/04/14 05:06:08;;;;;;;7.70;6.07;;;1.40;99.90;;;;;;5094969;28;20397;-65
2021/04/14 05:08:35;;;;;;;10.20;6.37;;;1.40;99.90;;;;;;5094750;28;20174;-65
2021/04/14 05:11:00;;;;;;;8.70;6.30;;;1.40;99.90;;;;;;5095302;28;20242;-65
2021/04/14 05:13:26;;;;;;;8.37;6.60;;;1.50;99.90;;;;;;5095227;28;20854;-65
2021/04/14 05:15:52;;;;;;;7.80;6.23;;;1.50;99.90;;;;;;5094850;28;20187;-65
2021/04/14 05:18:18;;;;;;;9.47;6.50;;;1.60;99.90;;;;;;5095368;28;20175;-65
2021/04/14 05:20:44;;;;;;;7.33;6.00;;;1.70;99.90;;;;;;5094774;28;20394;-65
2021/04/14 05:23:10;;;;;;;11.27;6.23;;;1.70;99.90;;;;;;5094726;28;20296;-65
2021/04/14 05:25:42;;;;;;;9.30;6.97;;;1.80;99.90;;;;;;5093688;28;20762;-65
2021/04/14 05:28:10;;;;;;;7.83;6.30;;;1.90;99.90;;;;;;5093664;28;20854;-65
2021/04/14 05:30:37;;;;;;;9.13;6.80;;;1.90;99.90;;;;;;5094817;28;20772;-65
2021/04/14 05:33:04;;;;;;;7.60;6.30;;;2.00;99.90;;;;;;5093418;28;20394;-65
2021/04/14 05:35:30;;;;;;;12.13;6.17;;;2.10;99.90;;;;;;5094908;28;20413;-65
2021/04/14 05:37:55;;;;;;;9.33;6.97;;;2.10;99.90;;;;;;5094280;28;20396;-65
2021/04/14 05:40:23;;;;;;;8.57;5.80;;;2.10;99.90;;;;;;5094660;28;20238;-66
2021/04/14 05:42:50;;;;;;;7.77;5.97;;;2.10;99.90;;;;;;5094770;28;20155;-66
2021/04/14 05:45:27;;;;;;;9.80;6.40;;;2.10;99.90;;;;;;5094059;28;20393;-65
2021/04/14 05:47:53;;;;;;;8.67;7.20;;;2.10;99.90;;;;;;5094266;28;20896;-66
2021/04/14 05:50:22;;;;;;;14.07;7.60;;;2.20;99.90;;;;;;5094171;28;20398;-66
2021/04/14 05:52:49;;;;;;;8.97;7.77;;;2.20;99.90;;;;;;5094625;28;20654;-66
2021/04/14 05:55:15;;;;;;;11.60;7.13;;;2.30;99.90;;;;;;5094120;28;20394;-66
2021/04/14 05:57:41;;;;;;;13.30;7.73;;;2.40;99.90;;;;;;5093989;28;20767;-65
2021/04/14 06:00:10;;;;;;;11.30;8.40;;;2.50;99.90;;;;;;5093827;28;20485;-66
2021/04/14 06:02:36;;;;;;;9.00;6.70;;;2.50;99.90;;;;;;5093932;28;20250;-66
2021/04/14 06:05:03;;;;;;;9.20;7.20;;;2.50;99.90;;;;;;5093653;28;20856;-66
2021/04/14 06:07:29;;;;;;;9.70;6.43;;;2.50;99.90;;;;;;5094092;28;20405;-66
2021/04/14 06:09:54;;;;;;;12.93;8.13;;;2.50;99.90;;;;;;5114013;28;20511;-66
2021/04/14 06:12:20;;;;;;;8.23;6.70;;;2.50;99.90;;;;;;5114065;28;20162;-66
2021/04/14 06:14:46;;;;;;;13.17;7.33;;;2.50;99.90;;;;;;5114010;28;20163;-66
2021/04/14 06:17:11;;;;;;;8.67;6.57;;;2.60;99.90;;;;;;5113853;28;20217;-66
2021/04/14 06:19:37;;;;;;;8.60;6.90;;;2.70;99.90;;;;;;5113923;28;20159;-66
2021/04/14 06:22:05;;;;;;;8.57;7.63;;;2.70;99.90;;;;;;5114539;28;20154;-66
2021/04/14 06:24:31;;;;;;;14.27;7.20;;;2.80;99.90;;;;;;5113223;28;20726;-66
2021/04/14 06:27:00;;;;;;;11.57;7.00;;;2.80;99.90;;;;;;5112862;28;20765;-66
2021/04/14 06:29:26;;;;;;;10.33;7.07;;;2.80;99.90;;;;;;5113809;28;20491;-66
2021/04/14 06:31:52;;;;;;;11.30;7.90;;;2.90;99.90;;;;;;5095660;28;20467;-66
2021/04/14 06:34:22;;;;;;;11.40;8.03;;;3.00;99.90;;;;;;5113886;28;20400;-66
2021/04/14 06:36:50;;;;;;;8.67;6.57;;;3.10;99.90;;;;;;5114385;28;20548;-66
2021/04/14 06:39:17;;;;;;;10.00;7.83;;;3.20;99.90;;;;;;5112772;28;20411;-66
2021/04/14 06:47:17;;;;;;;9.30;7.80;;;3.20;99.90;;;;;;5131360;27;20529;-65
2021/04/14 06:50:08;;;;;;;10.00;7.40;;;3.40;99.90;;;;;;5141359;27;20442;-66
2021/04/14 06:52:43;;;;;;;10.83;7.20;;;3.50;99.90;;;;;;5151536;27;20397;-65
2021/04/14 06:55:15;;;;;;;9.30;7.07;;;3.70;99.90;;;;;;5152423;27;20387;-65
2021/04/14 06:57:47;;;;;;;10.20;7.93;;;3.80;99.90;;;;;;5152339;27;20383;-65
2021/04/14 07:05:37;;;;;;;11.90;7.30;;;4.00;99.90;;;;;;5127679;27;20581;-66
2021/04/14 07:08:09;;;;;;;8.47;7.57;;;4.80;99.90;;;;;;5113658;28;20798;-66
2021/04/14 07:10:38;;;;;;;10.87;7.70;;;5.00;99.90;;;;;;5130162;28;20380;-66
2021/04/14 07:13:07;;;;;;;11.10;7.00;;;5.20;99.90;;;;;;5131296;28;20376;-66
2021/04/14 07:15:33;;;;;;;15.77;7.63;;;5.40;99.90;;;;;;5129586;28;20418;-66
2021/04/14 07:18:22;;;;;;;9.30;8.00;;;5.60;99.90;;;;;;5089056;28;20404;-66
2021/04/14 07:21:05;;;;;;;8.00;6.70;;;5.70;99.90;;;;;;5089382;28;20385;-66
2021/04/14 07:37:22;;;;;;;8.70;7.00;;;5.90;99.90;;;;;;5130883;27;20514;-65
2021/04/14 07:40:28;;;;;;;8.37;7.00;;;6.30;99.90;;;;;;5130322;28;20380;-65
2021/04/14 07:43:23;;;;;;;8.73;6.77;;;6.50;99.90;;;;;;5129867;28;20949;-65
2021/04/14 07:45:51;;;;;;;14.47;7.53;;;6.80;99.90;;;;;;5130065;28;20418;-65
2021/04/14 07:51:01;;;;;;;8.93;7.77;;;7.40;99.90;;;;;;5118615;27;20559;-66
2021/04/14 07:53:33;;;;;;;13.50;12.20;;;8.00;99.90;;;;;;5111094;28;20385;-66
2021/04/14 07:58:40;;;;;;;11.13;9.93;;;8.40;99.90;;;;;;5131289;27;20877;-66
2021/04/14 08:03:51;;;;;;;11.63;9.00;;;9.20;96.00;;;;;;5110928;27;20505;-66
2021/04/14 08:06:27;;;;;;;9.07;7.67;;;9.60;94.90;;;;;;5109741;28;20741;-65
2021/04/14 08:08:53;;;;;;;8.53;7.20;;;9.80;94.80;;;;;;5110482;28;20827;-66
2021/04/14 08:16:53;;;;;;;11.00;8.03;;;9.80;95.50;;;;;;5110976;27;20506;-65
2021/04/14 08:22:06;;;;;;;10.80;8.10;;;9.10;98.90;;;;;;5131581;27;20506;-66
2021/04/14 08:24:40;;;;;;;9.57;7.40;;;8.60;99.90;;;;;;5121027;28;20414;-66
2021/04/14 08:27:17;;;;;;;13.80;8.80;;;8.50;99.90;;;;;;5110932;28;20404;-66
2021/04/14 08:29:43;;;;;;;10.10;8.17;;;8.40;99.90;;;;;;5110822;28;20382;-66
2021/04/14 08:32:10;;;;;;;9.40;7.53;;;8.30;99.90;;;;;;5110753;28;20385;-66
2021/04/14 08:34:38;;;;;;;13.63;9.03;;;8.20;99.90;;;;;;5117744;28;20486;-66
2021/04/14 08:37:18;;;;;;;11.27;10.10;;;8.10;99.90;;;;;;5131378;28;20379;-66
2021/04/14 08:40:06;;;;;;;12.57;11.27;;;7.90;99.90;;;;;;5131048;27;20399;-66
2021/04/14 08:42:34;;;;;;;13.63;10.87;;;7.70;99.90;;;;;;5129224;27;20793;-66
2021/04/14 08:47:51;;;;;;;13.43;12.03;;;7.40;99.90;;;;;;5109622;27;20501;-65
2021/04/14 08:50:25;;;;;;;16.43;12.60;;;7.20;99.90;;;;;;5111405;28;20396;-65
2021/04/14 08:52:55;;;;;;;19.13;13.13;;;7.20;99.90;;;;;;5109873;28;20719;-66
2021/04/14 08:55:24;;;;;;;15.43;13.67;;;7.40;99.90;;;;;;5109339;28;20795;-66
2021/04/14 09:00:26;;;;;;;17.40;13.80;;;7.60;99.90;;;;;;5166562;22;20544;-68
2021/04/14 09:02:57;;;;;;;19.00;16.27;;;7.90;99.90;;;;;;5090051;28;20426;-70
2021/04/14 09:05:24;;;;;;;20.10;13.77;;;8.00;99.90;;;;;;5090235;28;20405;-70
2021/04/14 09:07:50;;;;;;;14.27;12.87;;;8.20;99.90;;;;;;5090171;28;20399;-70
2021/04/14 09:10:41;;;;;;;14.63;12.53;;;8.30;99.90;;;;;;5087403;28;20431;-70
2021/04/14 09:13:09;;;;;;;12.00;10.23;;;8.60;99.90;;;;;;5089223;28;20399;-70
2021/04/14 09:15:56;;;;;;;13.47;10.00;;;8.80;99.90;;;;;;5090352;28;20424;-70
2021/04/14 09:26:32;;;;;;;11.17;9.70;;;9.00;99.90;;;;;;5111131;27;20555;-70
2021/04/14 09:28:59;;;;;;;8.90;8.00;;;9.30;97.00;;;;;;5111264;28;20801;-70
2021/04/14 09:31:39;;;;;;;9.87;8.87;;;9.40;96.20;;;;;;5111757;28;20394;-69
2021/04/14 09:34:45;;;;;;;9.90;8.80;;;9.40;93.70;;;;;;5093366;28;20770;-68
2021/04/14 09:42:32;;;;;;;10.70;9.30;;;9.40;94.20;;;;;;5110970;27;20502;-69
2021/04/14 09:45:11;;;;;;;11.17;9.93;;;10.00;92.90;;;;;;5111348;28;20376;-70
2021/04/14 09:47:37;;;;;;;12.90;8.60;;;10.10;91.60;;;;;;5111176;28;20380;-70
2021/04/14 09:52:59;;;;;;;10.23;9.27;;;10.30;91.00;;;;;;5090923;28;20507;-69
2021/04/14 09:55:32;;;;;;;11.10;9.37;;;10.30;89.20;;;;;;5090745;28;20399;-69
2021/04/14 09:58:03;;;;;;;11.87;10.33;;;10.20;88.60;;;;;;5090601;28;20403;-69
2021/04/14 10:00:32;;;;;;;13.90;10.90;;;10.10;86.30;;;;;;5091192;28;20424;-69
2021/04/14 10:03:07;;;;;;;10.33;9.33;;;10.00;84.80;;;;;;5090727;28;20863;-69
2021/04/14 10:05:33;;;;;;;13.00;10.47;;;9.90;85.00;;;;;;5089924;28;20389;-69
2021/04/14 10:08:01;;;;;;;11.47;9.80;;;9.80;84.20;;;;;;5070194;28;20387;-69
2021/04/14 10:10:28;;;;;;;10.20;9.20;;;9.90;85.10;;;;;;5070391;28;20386;-69
2021/04/14 10:12:53;;;;;;;10.83;9.20;;;10.00;79.60;;;;;;5070095;28;20505;-69
2021/04/14 10:15:38;;;;;;;12.17;9.00;;;10.00;79.30;;;;;;5071374;28;20437;-69
2021/04/14 10:18:06;;;;;;;9.83;8.83;;;10.00;81.70;;;;;;5070201;28;20642;-70
2021/04/14 10:20:35;;;;;;;10.83;9.73;;;10.10;80.30;;;;;;5069922;28;20949;-70
2021/04/14 10:23:01;;;;;;;9.67;8.47;;;10.00;80.70;;;;;;5070455;28;20426;-70
2021/04/14 10:28:23;;;;;;;12.93;8.50;;;10.00;80.80;;;;;;5131706;27;20918;-69
2021/04/14 10:31:02;;;;;;;10.10;8.10;;;9.90;80.10;;;;;;5131871;28;20415;-69
2021/04/14 10:33:28;;;;;;;8.90;8.00;;;9.80;76.80;;;;;;5131819;27;20379;-69
2021/04/14 10:35:54;;;;;;;8.30;7.53;;;9.80;75.90;;;;;;5131276;28;20420;-69
2021/04/14 10:38:29;;;;;;;7.17;6.57;;;9.90;75.40;;;;;;5131413;28;20202;-69
2021/04/14 10:40:55;;;;;;;10.90;7.07;;;10.00;64.40;;;;;;5130528;28;20395;-69
2021/04/14 10:43:23;;;;;;;8.03;7.20;;;9.90;63.70;;;;;;5132406;28;20421;-69
2021/04/14 10:46:09;;;;;;;9.20;7.17;;;9.90;65.10;;;;;;5131256;28;20391;-69
2021/04/14 10:48:40;;;;;;;8.17;7.20;;;10.00;68.70;;;;;;5131528;28;20440;-69
2021/04/14 10:53:45;;;;;;;8.30;7.40;;;10.00;67.30;;;;;;5152306;27;20569;-70
2021/04/14 10:56:31;;;;;;;9.17;8.23;;;10.00;67.80;;;;;;5152076;27;20393;-69
2021/04/14 10:59:03;;;;;;;9.80;8.00;;;10.10;66.80;;;;;;5115861;28;20463;-70
2021/04/14 11:01:35;;;;;;;10.40;7.97;;;10.20;66.80;;;;;;5115126;28;20396;-70
2021/04/14 11:06:57;;;;;;;8.83;7.80;;;10.20;62.70;;;;;;5111007;27;21012;-70
2021/04/14 11:09:23;;;;;;;8.47;7.57;;;10.20;63.40;;;;;;5111012;28;20392;-70
2021/04/14 11:11:50;;;;;;;8.00;7.30;;;10.30;63.20;;;;;;5111350;28;20387;-70
2021/04/14 11:14:18;;;;;;;8.53;7.70;;;10.30;63.60;;;;;;5096759;28;20266;-70
2021/04/14 11:16:46;;;;;;;9.07;7.80;;;10.30;63.30;;;;;;5070488;28;20394;-70
2021/04/14 11:19:15;;;;;;;8.43;7.67;;;10.40;71.30;;;;;;5070577;28;20908;-70
2021/04/14 11:21:41;;;;;;;10.67;9.00;;;10.40;74.80;;;;;;5070098;28;20390;-71
2021/04/14 11:24:15;;;;;;;9.00;8.10;;;10.40;77.60;;;;;;5070097;28;20953;-70
2021/04/14 11:29:33;;;;;;;8.83;7.93;;;10.30;78.20;;;;;;5111564;27;20858;-70
2021/04/14 11:32:11;;;;;;;10.20;9.10;;;10.20;80.70;;;;;;5098315;28;20419;-69
2021/04/14 11:34:37;;;;;;;12.30;8.43;;;10.10;81.70;;;;;;5097837;28;20750;-69
2021/04/14 11:45:36;;;;;;;13.47;10.10;;;10.10;81.50;;;;;;5109766;27;20580;-69
2021/04/14 11:48:17;;;;;;;15.87;11.70;;;10.50;88.00;;;;;;5106049;28;20446;-70
2021/04/14 11:50:45;;;;;;;11.83;9.70;;;10.50;86.50;;;;;;5090539;28;20387;-70
2021/04/14 11:53:23;;;;;;;10.60;8.97;;;10.70;86.50;;;;;;5095916;28;20445;-70
2021/04/14 11:55:49;;;;;;;11.67;9.70;;;10.80;85.40;;;;;;5102835;28;20395;-70
2021/04/14 11:58:36;;;;;;;8.43;7.63;;;10.80;83.50;;;;;;5111193;28;20848;-70
2021/04/14 12:01:03;;;;;;;10.07;8.33;;;10.80;79.30;;;;;;5108823;28;20395;-70
2021/04/14 12:03:36;;;;;;;9.60;8.70;;;10.80;80.50;;;;;;5089593;28;20831;-70
2021/04/14 12:06:01;;;;;;;9.90;9.00;;;10.40;88.70;;;;;;5101901;28;20441;-69
2021/04/14 12:08:29;;;;;;;9.97;9.07;;;9.80;93.80;;;;;;5089528;28;20460;-70
2021/04/14 12:10:56;;;;;;;9.77;8.87;;;9.40;97.70;;;;;;5091584;28;20151;-70
2021/04/14 12:13:22;;;;;;;8.63;7.93;;;9.20;99.60;;;;;;5090396;28;20404;-70
2021/04/14 12:15:48;;;;;;;9.43;8.50;;;9.10;99.90;;;;;;5090408;28;20728;-70
2021/04/14 12:18:14;;;;;;;9.33;7.97;;;8.70;99.90;;;;;;5090337;28;20913;-70
2021/04/14 12:20:39;;;;;;;8.30;7.60;;;8.30;99.90;;;;;;5090057;28;20433;-70
2021/04/14 12:23:05;;;;;;;8.53;7.83;;;7.60;99.90;;;;;;5090550;28;20178;-70
2021/04/14 12:25:31;;;;;;;9.30;8.10;;;7.20;99.90;;;;;;5091034;28;20173;-70
2021/04/14 12:27:56;;;;;;;7.97;7.07;;;7.20;99.90;;;;;;5090109;28;20165;-69
2021/04/14 12:30:25;;;;;;;8.57;7.70;;;7.20;99.90;;;;;;5090033;28;20157;-70
2021/04/14 12:32:51;;;;;;;7.60;6.90;;;7.20;99.90;;;;;;5089993;28;20878;-69
2021/04/14 12:35:17;;;;;;;7.30;6.70;;;7.30;99.90;;;;;;5089715;28;20388;-69
2021/04/14 12:37:43;;;;;;;9.10;8.20;;;7.30;99.90;;;;;;5089713;28;20403;-69
2021/04/14 12:40:09;;;;;;;7.90;7.20;;;7.30;99.90;;;;;;5104820;28;20180;-70
2021/04/14 12:42:35;;;;;;;6.60;5.97;;;7.30;99.50;;;;;;5097547;28;20821;-69
2021/04/14 12:45:07;;;;;;;7.63;6.93;;;7.40;97.10;;;;;;5090327;28;20465;-70
2021/04/14 12:47:33;;;;;;;6.93;6.33;;;7.50;97.60;;;;;;5098267;28;20245;-69
2021/04/14 12:49:58;;;;;;;8.03;6.60;;;7.50;91.50;;;;;;5089290;28;20419;-69
2021/04/14 12:52:37;;;;;;;10.87;7.50;;;7.60;93.50;;;;;;5091073;28;20155;-69
2021/04/14 12:55:13;;;;;;;8.27;7.47;;;7.70;95.20;;;;;;5085806;28;20158;-70
2021/04/14 12:57:41;;;;;;;8.07;7.27;;;7.90;89.90;;;;;;5076225;28;20533;-69
2021/04/14 13:00:12;;;;;;;8.77;7.97;;;8.10;90.50;;;;;;5075760;28;20435;-69
2021/04/14 13:05:35;;;;;;;9.10;8.30;;;8.50;93.90;;;;;;5071005;28;20519;-70
2021/04/14 13:08:08;;;;;;;8.77;7.93;;;8.60;94.50;;;;;;5071395;28;20385;-70
2021/04/14 13:10:42;;;;;;;9.60;8.80;;;8.70;96.00;;;;;;5070663;28;20925;-70
2021/04/14 13:13:08;;;;;;;11.67;10.47;;;8.60;98.10;;;;;;5064375;28;20405;-70
2021/04/14 13:15:42;;;;;;;10.90;10.00;;;8.50;99.90;;;;;;5050338;28;20754;-70
2021/04/14 13:18:08;;;;;;;10.33;9.40;;;8.40;99.90;;;;;;5064700;28;20423;-70
2021/04/14 13:20:34;;;;;;;10.17;9.27;;;8.30;99.90;;;;;;5067462;28;20416;-70
2021/04/14 13:25:58;;;;;;;11.57;10.60;;;8.10;99.90;;;;;;5110155;27;20501;-69
2021/04/14 13:28:37;;;;;;;10.67;9.37;;;7.80;99.90;;;;;;5096266;28;20387;-68
2021/04/14 13:31:15;;;;;;;11.33;10.23;;;7.80;99.90;;;;;;5097261;28;20411;-68
2021/04/14 13:34:06;;;;;;;11.30;10.30;;;8.00;99.90;;;;;;5090464;28;20411;-68
2021/04/14 13:36:39;;;;;;;12.23;11.07;;;8.10;99.90;;;;;;5081673;28;20422;-69
2021/04/14 13:39:21;;;;;;;10.23;9.33;;;8.20;99.90;;;;;;5111439;28;20391;-68
2021/04/14 13:41:54;;;;;;;12.80;10.87;;;8.00;99.90;;;;;;5110628;28;20508;-68
2021/04/14 13:44:26;;;;;;;15.00;11.83;;;7.90;99.90;;;;;;5110777;28;20451;-68
2021/04/14 13:47:05;;;;;;;14.30;12.90;;;7.80;99.90;;;;;;5109799;28;20770;-68
2021/04/14 13:49:35;;;;;;;13.90;11.50;;;7.70;99.90;;;;;;5112179;28;20381;-68
2021/04/14 13:52:04;;;;;;;13.20;11.80;;;7.70;99.90;;;;;;5111636;28;20394;-69
2021/04/14 13:54:31;;;;;;;13.83;12.67;;;7.60;99.90;;;;;;5110957;28;20809;-68
2021/04/14 13:56:58;;;;;;;13.33;12.23;;;7.40;99.90;;;;;;5110401;28;20428;-68
2021/04/14 13:59:49;;;;;;;13.50;12.27;;;7.40;99.90;;;;;;5110547;28;20782;-68
2021/04/14 14:04:53;;;;;;;13.13;11.53;;;7.40;99.90;;;;;;5173242;27;20564;-70
2021/04/14 14:10:03;;;;;;;11.57;10.47;;;7.50;99.90;;;;;;5119058;27;20503;-69
2021/04/14 14:12:33;;;;;;;13.60;10.53;;;7.60;99.90;;;;;;5131561;28;20381;-69
2021/04/14 14:15:03;;;;;;;12.50;10.70;;;7.70;99.90;;;;;;5131389;28;20388;-69
2021/04/14 14:17:31;;;;;;;11.30;10.30;;;7.70;99.90;;;;;;5132277;28;20881;-69
2021/04/14 14:20:03;;;;;;;8.40;7.70;;;7.80;99.90;;;;;;5131543;28;20447;-69
2021/04/14 14:22:30;;;;;;;5.67;5.10;;;7.80;99.90;;;;;;5097057;28;20455;-69
2021/04/14 14:24:56;;;;;;;5.60;5.10;;;7.80;99.90;;;;;;5090508;28;20411;-69
2021/04/14 14:27:22;;;;;;;5.93;5.27;;;7.80;99.70;;;;;;5090212;28;20771;-69
2021/04/14 14:29:48;;;;;;;5.47;4.97;;;7.80;98.10;;;;;;5090335;28;20447;-69
2021/04/14 14:32:17;;;;;;;6.03;5.20;;;7.90;98.50;;;;;;5090680;28;20391;-69